sensor_id;sensor_type;location;lat;lon;timestamp;temperature;humidity
57058;DHT22;55017;52.848;6.748;2022-09-09T00:02:18;14.10;99.90
57058;DHT22;55017;52.848;6.748;2022-09-09T00:04:48;14.10;99.90
57058;DHT22;55017;52.848;6.748;2022-09-09T00:07:49;14.10;99.90
57058;DHT22;55017;52.848;6.748;2022-09-09T00:10:29;14.10;99.90
57058;DHT22;55017;52.848;6.748;2022-09-09T00:18:17;14.00;99.90
57058;DHT22;55017;52.848;6.748;2022-09-09T00:21:01;14.00;99.90
57058;DHT22;55017;52.848;6.748;2022-09-09T00:23:30;13.90;99.90
57058;DHT22;55017;52.848;6.748;2022-09-09T00:31:38;13.90;99.90
57058;DHT22;55017;52.848;6.748;2022-09-09T00:34:13;13.90;99.90
57058;DHT22;55017;52.848;6.748;2022-09-09T00:36:41;13.80;99.90
57058;DHT22;55017;52.848;6.748;2022-09-09T00:39:32;13.80;99.90
57058;DHT22;55017;52.848;6.748;2022-09-09T00:42:46;13.90;99.90
57058;DHT22;55017;52.848;6.748;2022-09-09T00:47:51;13.90;99.90
57058;DHT22;55017;52.848;6.748;2022-09-09T00:55:50;14.00;99.90
57058;DHT22;55017;52.848;6.748;2022-09-09T00:58:20;14.00;99.90
57058;DHT22;55017;52.848;6.748;2022-09-09T01:01:04;14.00;99.90
57058;DHT22;55017;52.848;6.748;2022-09-09T01:03:48;14.10;99.90
57058;DHT22;55017;52.848;6.748;2022-09-09T01:08:58;14.10;99.90
57058;DHT22;55017;52.848;6.748;2022-09-09T01:14:39;14.20;99.90
57058;DHT22;55017;52.848;6.748;2022-09-09T01:17:19;14.20;99.90
57058;DHT22;55017;52.848;6.748;2022-09-09T01:25:27;14.30;99.90
57058;DHT22;55017;52.848;6.748;2022-09-09T01:28:00;14.30;99.90
57058;DHT22;55017;52.848;6.748;2022-09-09T01:30:27;14.40;99.90
57058;DHT22;55017;52.848;6.748;2022-09-09T01:32:56;14.40;99.90
57058;DHT22;55017;52.848;6.748;2022-09-09T01:35:28;14.40;99.90
57058;DHT22;55017;52.848;6.748;2022-09-09T01:37:55;14.50;99.90
57058;DHT22;55017;52.848;6.748;2022-09-09T01:40:22;14.50;99.90
57058;DHT22;55017;52.848;6.748;2022-09-09T01:42:49;14.60;99.90
57058;DHT22;55017;52.848;6.748;2022-09-09T01:45:15;14.50;99.90
57058;DHT22;55017;52.848;6.748;2022-09-09T01:47:41;14.60;99.90
57058;DHT22;55017;52.848;6.748;2022-09-09T01:50:08;14.60;99.90
57058;DHT22;55017;52.848;6.748;2022-09-09T01:52:36;14.60;99.90
57058;DHT22;55017;52.848;6.748;2022-09-09T01:55:03;14.60;99.90
57058;DHT22;55017;52.848;6.748;2022-09-09T01:57:35;14.60;99.90
57058;DHT22;55017;52.848;6.748;2022-09-09T02:00:10;14.60;99.90
57058;DHT22;55017;52.848;6.748;2022-09-09T02:08:36;14.70;99.90
57058;DHT22;55017;52.848;6.748;2022-09-09T02:11:13;14.70;99.90
57058;DHT22;55017;52.848;6.748;2022-09-09T02:13:39;14.80;99.90
57058;DHT22;55017;52.848;6.748;2022-09-09T02:16:15;14.80;99.90
57058;DHT22;55017;52.848;6.748;2022-09-09T02:19:49;14.80;99.90
57058;DHT22;55017;52.848;6.748;2022-09-09T02:21:44;14.80;99.90
57058;DHT22;55017;52.848;6.748;2022-09-09T02:24:12;14.80;99.90
57058;DHT22;55017;52.848;6.748;2022-09-09T02:26:41;14.80;99.90
57058;DHT22;55017;52.848;6.748;2022-09-09T02:29:29;14.80;99.90
57058;DHT22;55017;52.848;6.748;2022-09-09T02:31:59;14.90;99.90
57058;DHT22;55017;52.848;6.748;2022-09-09T02:34:28;14.90;99.90
57058;DHT22;55017;52.848;6.748;2022-09-09T02:36:57;14.80;99.90
57058;DHT22;55017;52.848;6.748;2022-09-09T02:39:25;14.90;99.90
57058;DHT22;55017;52.848;6.748;2022-09-09T02:41:51;14.90;99.90
57058;DHT22;55017;52.848;6.748;2022-09-09T02:44:18;14.90;99.90
57058;DHT22;55017;52.848;6.748;2022-09-09T02:46:50;15.00;99.90
57058;DHT22;55017;52.848;6.748;2022-09-09T02:49:29;14.90;99.90
57058;DHT22;55017;52.848;6.748;2022-09-09T02:52:07;14.90;99.90
57058;DHT22;55017;52.848;6.748;2022-09-09T02:54:35;14.90;99.90
57058;DHT22;55017;52.848;6.748;2022-09-09T02:57:19;14.80;99.90
57058;DHT22;55017;52.848;6.748;2022-09-09T02:59:46;14.90;99.90
57058;DHT22;55017;52.848;6.748;2022-09-09T03:02:12;14.90;99.90
57058;DHT22;55017;52.848;6.748;2022-09-09T03:04:39;14.80;99.90
57058;DHT22;55017;52.848;6.748;2022-09-09T03:07:06;14.80;99.90
57058;DHT22;55017;52.848;6.748;2022-09-09T03:09:31;14.80;99.90
57058;DHT22;55017;52.848;6.748;2022-09-09T03:11:58;14.80;99.90
57058;DHT22;55017;52.848;6.748;2022-09-09T03:14:24;14.90;99.90
57058;DHT22;55017;52.848;6.748;2022-09-09T03:16:54;14.90;99.90
57058;DHT22;55017;52.848;6.748;2022-09-09T03:19:20;14.80;99.90
57058;DHT22;55017;52.848;6.748;2022-09-09T03:21:46;14.80;99.90
57058;DHT22;55017;52.848;6.748;2022-09-09T03:24:13;14.90;99.90
57058;DHT22;55017;52.848;6.748;2022-09-09T03:26:40;14.80;99.90
57058;DHT22;55017;52.848;6.748;2022-09-09T03:29:06;14.90;99.90
57058;DHT22;55017;52.848;6.748;2022-09-09T03:31:33;14.90;99.90
57058;DHT22;55017;52.848;6.748;2022-09-09T03:33:59;14.90;99.90
57058;DHT22;55017;52.848;6.748;2022-09-09T03:36:25;14.90;99.90
57058;DHT22;55017;52.848;6.748;2022-09-09T03:38:52;14.90;99.90
57058;DHT22;55017;52.848;6.748;2022-09-09T03:41:18;14.80;99.90
57058;DHT22;55017;52.848;6.748;2022-09-09T03:43:43;14.80;99.90
57058;DHT22;55017;52.848;6.748;2022-09-09T03:46:09;14.80;99.90
57058;DHT22;55017;52.848;6.748;2022-09-09T03:48:35;14.80;99.90
57058;DHT22;55017;52.848;6.748;2022-09-09T03:51:01;14.80;99.90
57058;DHT22;55017;52.848;6.748;2022-09-09T03:53:27;14.80;99.90
57058;DHT22;55017;52.848;6.748;2022-09-09T03:55:55;14.80;99.90
57058;DHT22;55017;52.848;6.748;2022-09-09T03:58:22;14.80;99.90
57058;DHT22;55017;52.848;6.748;2022-09-09T04:00:57;14.70;99.90
57058;DHT22;55017;52.848;6.748;2022-09-09T04:03:23;14.70;99.90
57058;DHT22;55017;52.848;6.748;2022-09-09T04:05:51;14.70;99.90
57058;DHT22;55017;52.848;6.748;2022-09-09T04:08:17;14.70;99.90
57058;DHT22;55017;52.848;6.748;2022-09-09T04:10:47;14.70;99.90
57058;DHT22;55017;52.848;6.748;2022-09-09T04:13:14;14.70;99.90
57058;DHT22;55017;52.848;6.748;2022-09-09T04:15:42;14.70;99.90
57058;DHT22;55017;52.848;6.748;2022-09-09T04:18:09;14.70;99.90
57058;DHT22;55017;52.848;6.748;2022-09-09T04:20:34;14.60;99.90
57058;DHT22;55017;52.848;6.748;2022-09-09T04:23:00;14.70;99.90
57058;DHT22;55017;52.848;6.748;2022-09-09T04:25:26;14.70;99.90
57058;DHT22;55017;52.848;6.748;2022-09-09T04:27:56;14.70;99.90
57058;DHT22;55017;52.848;6.748;2022-09-09T04:30:23;14.70;99.90
57058;DHT22;55017;52.848;6.748;2022-09-09T04:32:49;14.70;99.90
57058;DHT22;55017;52.848;6.748;2022-09-09T04:35:14;14.70;99.90
57058;DHT22;55017;52.848;6.748;2022-09-09T04:37:40;14.70;99.90
57058;DHT22;55017;52.848;6.748;2022-09-09T04:40:07;14.70;99.90
57058;DHT22;55017;52.848;6.748;2022-09-09T04:42:38;14.60;99.90
57058;DHT22;55017;52.848;6.748;2022-09-09T04:45:05;14.60;99.90
57058;DHT22;55017;52.848;6.748;2022-09-09T04:47:32;14.60;99.90
57058;DHT22;55017;52.848;6.748;2022-09-09T04:49:58;14.60;99.90
57058;DHT22;55017;52.848;6.748;2022-09-09T04:52:23;14.70;99.90
57058;DHT22;55017;52.848;6.748;2022-09-09T04:54:49;14.70;99.90
57058;DHT22;55017;52.848;6.748;2022-09-09T04:57:15;14.60;99.90
57058;DHT22;55017;52.848;6.748;2022-09-09T04:59:40;14.60;99.90
57058;DHT22;55017;52.848;6.748;2022-09-09T05:02:06;14.60;99.90
57058;DHT22;55017;52.848;6.748;2022-09-09T05:04:32;14.60;99.90
57058;DHT22;55017;52.848;6.748;2022-09-09T05:06:58;14.60;99.90
57058;DHT22;55017;52.848;6.748;2022-09-09T05:09:24;14.60;99.90
57058;DHT22;55017;52.848;6.748;2022-09-09T05:11:50;14.60;99.90
57058;DHT22;55017;52.848;6.748;2022-09-09T05:14:16;14.60;99.90
57058;DHT22;55017;52.848;6.748;2022-09-09T05:16:44;14.60;99.90
57058;DHT22;55017;52.848;6.748;2022-09-09T05:19:11;14.60;99.90
57058;DHT22;55017;52.848;6.748;2022-09-09T05:21:37;14.70;99.90
57058;DHT22;55017;52.848;6.748;2022-09-09T05:24:02;14.60;99.90
57058;DHT22;55017;52.848;6.748;2022-09-09T05:26:28;14.60;99.90
57058;DHT22;55017;52.848;6.748;2022-09-09T05:28:57;14.60;99.90
57058;DHT22;55017;52.848;6.748;2022-09-09T05:31:24;14.60;99.90
57058;DHT22;55017;52.848;6.748;2022-09-09T05:33:54;14.60;99.90
57058;DHT22;55017;52.848;6.748;2022-09-09T05:36:21;14.60;99.90
57058;DHT22;55017;52.848;6.748;2022-09-09T05:38:47;14.60;99.90
57058;DHT22;55017;52.848;6.748;2022-09-09T05:41:13;14.60;99.90
57058;DHT22;55017;52.848;6.748;2022-09-09T05:43:43;14.60;99.90
57058;DHT22;55017;52.848;6.748;2022-09-09T05:46:13;14.60;99.90
57058;DHT22;55017;52.848;6.748;2022-09-09T05:48:41;14.60;99.90
57058;DHT22;55017;52.848;6.748;2022-09-09T05:51:10;14.60;99.90
57058;DHT22;55017;52.848;6.748;2022-09-09T05:53:38;14.60;99.90
57058;DHT22;55017;52.848;6.748;2022-09-09T05:56:09;14.70;99.90
57058;DHT22;55017;52.848;6.748;2022-09-09T05:58:36;14.70;99.90
57058;DHT22;55017;52.848;6.748;2022-09-09T06:01:07;14.70;99.90
57058;DHT22;55017;52.848;6.748;2022-09-09T06:03:38;14.80;99.90
57058;DHT22;55017;52.848;6.748;2022-09-09T06:06:07;14.90;99.90
57058;DHT22;55017;52.848;6.748;2022-09-09T06:08:37;14.90;99.90
57058;DHT22;55017;52.848;6.748;2022-09-09T06:11:09;14.90;99.90
57058;DHT22;55017;52.848;6.748;2022-09-09T06:13:36;15.00;99.90
57058;DHT22;55017;52.848;6.748;2022-09-09T06:16:05;15.00;99.90
57058;DHT22;55017;52.848;6.748;2022-09-09T06:18:32;15.00;99.90
57058;DHT22;55017;52.848;6.748;2022-09-09T06:21:03;15.00;99.90
57058;DHT22;55017;52.848;6.748;2022-09-09T06:23:30;15.10;99.90
57058;DHT22;55017;52.848;6.748;2022-09-09T06:26:10;15.20;99.90
57058;DHT22;55017;52.848;6.748;2022-09-09T06:28:36;15.10;99.90
57058;DHT22;55017;52.848;6.748;2022-09-09T06:31:05;15.10;99.90
57058;DHT22;55017;52.848;6.748;2022-09-09T06:33:32;15.10;99.90
57058;DHT22;55017;52.848;6.748;2022-09-09T06:36:00;15.10;99.90
57058;DHT22;55017;52.848;6.748;2022-09-09T06:38:26;15.10;99.90
57058;DHT22;55017;52.848;6.748;2022-09-09T06:40:55;15.10;99.90
57058;DHT22;55017;52.848;6.748;2022-09-09T06:43:22;15.20;99.90
57058;DHT22;55017;52.848;6.748;2022-09-09T06:45:59;15.20;99.90
57058;DHT22;55017;52.848;6.748;2022-09-09T06:48:26;15.20;99.90
57058;DHT22;55017;52.848;6.748;2022-09-09T06:51:06;15.10;99.90
57058;DHT22;55017;52.848;6.748;2022-09-09T06:53:33;15.10;99.90
57058;DHT22;55017;52.848;6.748;2022-09-09T06:56:20;15.20;99.90
57058;DHT22;55017;52.848;6.748;2022-09-09T06:58:47;15.20;99.90
57058;DHT22;55017;52.848;6.748;2022-09-09T07:01:35;15.30;99.90
57058;DHT22;55017;52.848;6.748;2022-09-09T07:04:02;15.30;99.90
57058;DHT22;55017;52.848;6.748;2022-09-09T07:06:34;15.30;99.90
57058;DHT22;55017;52.848;6.748;2022-09-09T07:09:02;15.20;99.90
57058;DHT22;55017;52.848;6.748;2022-09-09T07:11:31;15.30;99.90
57058;DHT22;55017;52.848;6.748;2022-09-09T07:13:59;15.40;99.90
57058;DHT22;55017;52.848;6.748;2022-09-09T07:16:25;15.40;99.90
57058;DHT22;55017;52.848;6.748;2022-09-09T07:18:52;15.50;99.90
57058;DHT22;55017;52.848;6.748;2022-09-09T07:21:18;15.80;99.90
57058;DHT22;55017;52.848;6.748;2022-09-09T07:23:45;16.00;99.90
57058;DHT22;55017;52.848;6.748;2022-09-09T07:26:16;16.20;99.90
57058;DHT22;55017;52.848;6.748;2022-09-09T07:28:42;16.40;99.90
57058;DHT22;55017;52.848;6.748;2022-09-09T07:31:17;16.50;99.90
57058;DHT22;55017;52.848;6.748;2022-09-09T07:33:44;16.70;99.90
57058;DHT22;55017;52.848;6.748;2022-09-09T07:38:45;17.00;99.90
57058;DHT22;55017;52.848;6.748;2022-09-09T07:41:15;17.10;99.90
57058;DHT22;55017;52.848;6.748;2022-09-09T07:43:43;17.00;99.90
57058;DHT22;55017;52.848;6.748;2022-09-09T07:46:11;17.10;99.90
57058;DHT22;55017;52.848;6.748;2022-09-09T07:48:38;17.20;99.90
57058;DHT22;55017;52.848;6.748;2022-09-09T07:53:31;17.40;99.90
57058;DHT22;55017;52.848;6.748;2022-09-09T07:56:03;17.60;99.90
57058;DHT22;55017;52.848;6.748;2022-09-09T07:58:29;17.80;99.90
57058;DHT22;55017;52.848;6.748;2022-09-09T08:00:55;17.80;99.90
57058;DHT22;55017;52.848;6.748;2022-09-09T08:03:20;18.00;99.90
57058;DHT22;55017;52.848;6.748;2022-09-09T08:05:47;18.20;99.90
57058;DHT22;55017;52.848;6.748;2022-09-09T08:08:12;18.20;99.90
57058;DHT22;55017;52.848;6.748;2022-09-09T08:10:38;18.20;99.90
57058;DHT22;55017;52.848;6.748;2022-09-09T08:13:04;18.40;99.90
57058;DHT22;55017;52.848;6.748;2022-09-09T08:15:31;18.50;99.90
57058;DHT22;55017;52.848;6.748;2022-09-09T08:17:57;18.50;99.90
57058;DHT22;55017;52.848;6.748;2022-09-09T08:20:23;18.50;99.90
57058;DHT22;55017;52.848;6.748;2022-09-09T08:22:49;18.40;99.90
57058;DHT22;55017;52.848;6.748;2022-09-09T08:25:15;18.40;99.90
57058;DHT22;55017;52.848;6.748;2022-09-09T08:27:41;18.30;99.90
57058;DHT22;55017;52.848;6.748;2022-09-09T08:30:07;18.40;99.90
57058;DHT22;55017;52.848;6.748;2022-09-09T08:32:33;18.60;99.90
57058;DHT22;55017;52.848;6.748;2022-09-09T08:35:00;18.70;99.90
57058;DHT22;55017;52.848;6.748;2022-09-09T08:37:26;19.10;99.90
57058;DHT22;55017;52.848;6.748;2022-09-09T08:39:51;19.10;99.90
57058;DHT22;55017;52.848;6.748;2022-09-09T08:42:36;19.00;99.90
57058;DHT22;55017;52.848;6.748;2022-09-09T08:45:26;18.90;99.90
57058;DHT22;55017;52.848;6.748;2022-09-09T08:48:22;18.80;99.90
57058;DHT22;55017;52.848;6.748;2022-09-09T08:50:54;18.80;99.90
57058;DHT22;55017;52.848;6.748;2022-09-09T08:53:29;18.60;99.90
57058;DHT22;55017;52.848;6.748;2022-09-09T08:55:59;18.70;99.90
57058;DHT22;55017;52.848;6.748;2022-09-09T08:58:27;18.70;99.90
57058;DHT22;55017;52.848;6.748;2022-09-09T09:09:18;18.70;99.90
57058;DHT22;55017;52.848;6.748;2022-09-09T09:11:47;18.80;99.90
57058;DHT22;55017;52.848;6.748;2022-09-09T09:14:20;18.70;99.90
57058;DHT22;55017;52.848;6.748;2022-09-09T09:16:56;18.70;99.90
57058;DHT22;55017;52.848;6.748;2022-09-09T09:19:23;18.60;99.90
57058;DHT22;55017;52.848;6.748;2022-09-09T09:21:57;18.40;99.90
57058;DHT22;55017;52.848;6.748;2022-09-09T09:24:51;18.30;99.90
57058;DHT22;55017;52.848;6.748;2022-09-09T09:27:35;18.30;99.90
57058;DHT22;55017;52.848;6.748;2022-09-09T09:30:18;18.50;99.90
57058;DHT22;55017;52.848;6.748;2022-09-09T09:33:02;18.60;99.90
57058;DHT22;55017;52.848;6.748;2022-09-09T09:35:31;18.50;99.90
57058;DHT22;55017;52.848;6.748;2022-09-09T09:37:57;18.60;99.90
57058;DHT22;55017;52.848;6.748;2022-09-09T09:40:23;18.80;99.90
57058;DHT22;55017;52.848;6.748;2022-09-09T09:42:55;18.90;99.90
57058;DHT22;55017;52.848;6.748;2022-09-09T09:45:34;18.90;99.90
57058;DHT22;55017;52.848;6.748;2022-09-09T09:48:05;19.10;99.90
57058;DHT22;55017;52.848;6.748;2022-09-09T09:50:32;19.30;99.90
57058;DHT22;55017;52.848;6.748;2022-09-09T09:53:02;19.40;99.90
57058;DHT22;55017;52.848;6.748;2022-09-09T09:55:30;19.50;99.90
57058;DHT22;55017;52.848;6.748;2022-09-09T09:58:13;19.90;99.90
57058;DHT22;55017;52.848;6.748;2022-09-09T10:00:51;20.40;99.90
57058;DHT22;55017;52.848;6.748;2022-09-09T10:03:28;20.60;99.90
57058;DHT22;55017;52.848;6.748;2022-09-09T10:05:55;20.80;99.90
57058;DHT22;55017;52.848;6.748;2022-09-09T10:08:23;21.10;99.90
57058;DHT22;55017;52.848;6.748;2022-09-09T10:13:18;21.20;99.90
57058;DHT22;55017;52.848;6.748;2022-09-09T10:18:45;21.20;99.90
57058;DHT22;55017;52.848;6.748;2022-09-09T10:29:16;20.40;99.90
57058;DHT22;55017;52.848;6.748;2022-09-09T10:40:36;21.20;99.90
57058;DHT22;55017;52.848;6.748;2022-09-09T10:59:50;20.90;99.90
57058;DHT22;55017;52.848;6.748;2022-09-09T11:02:29;20.70;99.90
57058;DHT22;55017;52.848;6.748;2022-09-09T11:05:49;20.60;99.90
57058;DHT22;55017;52.848;6.748;2022-09-09T11:07:58;20.60;99.90
57058;DHT22;55017;52.848;6.748;2022-09-09T11:13:14;21.10;99.90
57058;DHT22;55017;52.848;6.748;2022-09-09T11:15:50;21.20;99.90
57058;DHT22;55017;52.848;6.748;2022-09-09T11:18:20;21.60;99.90
57058;DHT22;55017;52.848;6.748;2022-09-09T11:20:53;21.80;99.90
57058;DHT22;55017;52.848;6.748;2022-09-09T11:23:27;21.90;99.90
57058;DHT22;55017;52.848;6.748;2022-09-09T11:25:57;22.20;99.90
57058;DHT22;55017;52.848;6.748;2022-09-09T11:42:16;22.50;99.90
57058;DHT22;55017;52.848;6.748;2022-09-09T11:44:43;22.50;99.90
57058;DHT22;55017;52.848;6.748;2022-09-09T11:47:21;22.40;99.90
57058;DHT22;55017;52.848;6.748;2022-09-09T11:49:48;22.30;99.90
57058;DHT22;55017;52.848;6.748;2022-09-09T11:52:25;22.00;99.90
57058;DHT22;55017;52.848;6.748;2022-09-09T11:55:09;21.90;99.90
57058;DHT22;55017;52.848;6.748;2022-09-09T11:57:37;21.70;99.90
57058;DHT22;55017;52.848;6.748;2022-09-09T12:00:05;21.70;99.90
57058;DHT22;55017;52.848;6.748;2022-09-09T12:02:31;21.80;99.90
57058;DHT22;55017;52.848;6.748;2022-09-09T12:04:58;21.90;99.90
57058;DHT22;55017;52.848;6.748;2022-09-09T12:07:41;22.20;99.90
57058;DHT22;55017;52.848;6.748;2022-09-09T12:12:38;22.80;99.90
57058;DHT22;55017;52.848;6.748;2022-09-09T12:17:44;23.40;99.90
57058;DHT22;55017;52.848;6.748;2022-09-09T12:23:05;23.50;99.30
57058;DHT22;55017;52.848;6.748;2022-09-09T12:28:41;22.90;98.70
57058;DHT22;55017;52.848;6.748;2022-09-09T12:31:44;22.60;99.20
57058;DHT22;55017;52.848;6.748;2022-09-09T12:34:16;22.30;99.90
57058;DHT22;55017;52.848;6.748;2022-09-09T12:36:46;22.10;99.90
57058;DHT22;55017;52.848;6.748;2022-09-09T12:39:42;22.00;99.90
57058;DHT22;55017;52.848;6.748;2022-09-09T12:42:19;21.90;99.90
57058;DHT22;55017;52.848;6.748;2022-09-09T12:44:59;21.60;99.90
57058;DHT22;55017;52.848;6.748;2022-09-09T12:50:02;21.40;99.90
57058;DHT22;55017;52.848;6.748;2022-09-09T12:52:34;21.30;99.90
57058;DHT22;55017;52.848;6.748;2022-09-09T12:55:03;22.10;99.90
57058;DHT22;55017;52.848;6.748;2022-09-09T12:57:34;22.20;99.90
57058;DHT22;55017;52.848;6.748;2022-09-09T13:00:19;21.90;99.90
57058;DHT22;55017;52.848;6.748;2022-09-09T13:02:56;21.60;99.90
57058;DHT22;55017;52.848;6.748;2022-09-09T13:05:28;21.30;99.90
57058;DHT22;55017;52.848;6.748;2022-09-09T13:08:05;21.10;99.90
57058;DHT22;55017;52.848;6.748;2022-09-09T13:13:15;21.00;99.90
57058;DHT22;55017;52.848;6.748;2022-09-09T13:15:52;21.20;99.90
57058;DHT22;55017;52.848;6.748;2022-09-09T13:18:22;21.20;99.90
57058;DHT22;55017;52.848;6.748;2022-09-09T13:20:49;20.90;99.90
57058;DHT22;55017;52.848;6.748;2022-09-09T13:23:16;20.90;99.90
57058;DHT22;55017;52.848;6.748;2022-09-09T13:26:00;21.90;99.90
57058;DHT22;55017;52.848;6.748;2022-09-09T13:28:28;24.30;99.90
57058;DHT22;55017;52.848;6.748;2022-09-09T13:31:01;26.20;97.60
57058;DHT22;55017;52.848;6.748;2022-09-09T13:33:38;27.50;89.00
57058;DHT22;55017;52.848;6.748;2022-09-09T13:36:08;28.80;73.80
57058;DHT22;55017;52.848;6.748;2022-09-09T13:38:53;29.50;69.40
57058;DHT22;55017;52.848;6.748;2022-09-09T13:41:24;30.40;68.00
57058;DHT22;55017;52.848;6.748;2022-09-09T13:43:51;30.80;61.90
57058;DHT22;55017;52.848;6.748;2022-09-09T13:46:44;30.50;59.20
57058;DHT22;55017;52.848;6.748;2022-09-09T13:51:40;27.80;62.60
57058;DHT22;55017;52.848;6.748;2022-09-09T13:54:11;27.10;65.80
57058;DHT22;55017;52.848;6.748;2022-09-09T13:56:38;25.70;67.00
57058;DHT22;55017;52.848;6.748;2022-09-09T13:59:10;24.80;75.60
57058;DHT22;55017;52.848;6.748;2022-09-09T14:01:36;24.10;81.30
57058;DHT22;55017;52.848;6.748;2022-09-09T14:04:02;23.50;89.80
57058;DHT22;55017;52.848;6.748;2022-09-09T14:06:29;22.90;93.10
57058;DHT22;55017;52.848;6.748;2022-09-09T14:08:55;22.50;96.00
57058;DHT22;55017;52.848;6.748;2022-09-09T14:11:21;22.10;97.60
57058;DHT22;55017;52.848;6.748;2022-09-09T14:13:47;21.80;98.70
57058;DHT22;55017;52.848;6.748;2022-09-09T14:16:15;21.60;99.90
57058;DHT22;55017;52.848;6.748;2022-09-09T14:18:41;21.30;99.90
57058;DHT22;55017;52.848;6.748;2022-09-09T14:21:07;21.00;99.90
57058;DHT22;55017;52.848;6.748;2022-09-09T14:23:34;20.80;99.90
57058;DHT22;55017;52.848;6.748;2022-09-09T14:25:59;20.40;99.90
57058;DHT22;55017;52.848;6.748;2022-09-09T14:28:25;20.10;99.90
57058;DHT22;55017;52.848;6.748;2022-09-09T14:30:50;19.80;99.90
57058;DHT22;55017;52.848;6.748;2022-09-09T14:33:16;19.70;99.90
57058;DHT22;55017;52.848;6.748;2022-09-09T14:35:42;19.60;99.90
57058;DHT22;55017;52.848;6.748;2022-09-09T14:38:08;19.70;99.90
57058;DHT22;55017;52.848;6.748;2022-09-09T14:40:36;19.80;99.90
57058;DHT22;55017;52.848;6.748;2022-09-09T14:43:02;19.70;99.90
57058;DHT22;55017;52.848;6.748;2022-09-09T14:45:28;19.80;99.90
57058;DHT22;55017;52.848;6.748;2022-09-09T14:47:53;19.80;99.90
57058;DHT22;55017;52.848;6.748;2022-09-09T14:50:20;19.80;99.90
57058;DHT22;55017;52.848;6.748;2022-09-09T14:52:46;19.80;99.90
57058;DHT22;55017;52.848;6.748;2022-09-09T14:55:12;19.80;99.90
57058;DHT22;55017;52.848;6.748;2022-09-09T14:57:38;19.70;99.90
57058;DHT22;55017;52.848;6.748;2022-09-09T15:00:05;19.70;99.90
57058;DHT22;55017;52.848;6.748;2022-09-09T15:02:32;19.80;99.90
57058;DHT22;55017;52.848;6.748;2022-09-09T15:04:58;19.80;99.90
57058;DHT22;55017;52.848;6.748;2022-09-09T15:07:24;19.70;99.90
57058;DHT22;55017;52.848;6.748;2022-09-09T15:09:50;19.70;99.90
57058;DHT22;55017;52.848;6.748;2022-09-09T15:12:17;19.80;99.90
57058;DHT22;55017;52.848;6.748;2022-09-09T15:14:44;19.60;99.90
57058;DHT22;55017;52.848;6.748;2022-09-09T15:17:10;19.70;99.90
57058;DHT22;55017;52.848;6.748;2022-09-09T15:19:36;19.60;99.90
57058;DHT22;55017;52.848;6.748;2022-09-09T15:22:03;19.60;99.90
57058;DHT22;55017;52.848;6.748;2022-09-09T15:24:31;19.50;99.90
57058;DHT22;55017;52.848;6.748;2022-09-09T15:26:57;19.50;99.90
57058;DHT22;55017;52.848;6.748;2022-09-09T15:29:23;19.50;99.90
57058;DHT22;55017;52.848;6.748;2022-09-09T15:31:48;19.50;99.90
57058;DHT22;55017;52.848;6.748;2022-09-09T15:34:14;19.40;99.90
57058;DHT22;55017;52.848;6.748;2022-09-09T15:36:42;19.50;99.90
57058;DHT22;55017;52.848;6.748;2022-09-09T15:39:10;19.40;99.90
57058;DHT22;55017;52.848;6.748;2022-09-09T15:41:38;19.30;99.90
57058;DHT22;55017;52.848;6.748;2022-09-09T15:44:05;19.20;99.90
57058;DHT22;55017;52.848;6.748;2022-09-09T15:46:36;19.20;99.90
57058;DHT22;55017;52.848;6.748;2022-09-09T15:49:05;19.20;99.90
57058;DHT22;55017;52.848;6.748;2022-09-09T15:51:31;19.00;99.90
57058;DHT22;55017;52.848;6.748;2022-09-09T15:53:57;18.80;99.90
57058;DHT22;55017;52.848;6.748;2022-09-09T15:56:25;18.80;99.90
57058;DHT22;55017;52.848;6.748;2022-09-09T15:58:51;18.80;99.90
57058;DHT22;55017;52.848;6.748;2022-09-09T16:01:18;18.80;99.90
57058;DHT22;55017;52.848;6.748;2022-09-09T16:03:44;18.80;99.90
57058;DHT22;55017;52.848;6.748;2022-09-09T16:06:16;18.80;99.90
57058;DHT22;55017;52.848;6.748;2022-09-09T16:08:44;18.80;99.90
57058;DHT22;55017;52.848;6.748;2022-09-09T16:11:15;18.80;99.90
57058;DHT22;55017;52.848;6.748;2022-09-09T16:13:43;18.90;99.90
57058;DHT22;55017;52.848;6.748;2022-09-09T16:16:11;18.80;99.90
57058;DHT22;55017;52.848;6.748;2022-09-09T16:18:40;18.80;99.90
57058;DHT22;55017;52.848;6.748;2022-09-09T16:21:07;18.90;99.90
57058;DHT22;55017;52.848;6.748;2022-09-09T16:23:36;18.90;99.90
57058;DHT22;55017;52.848;6.748;2022-09-09T16:26:02;18.80;99.90
57058;DHT22;55017;52.848;6.748;2022-09-09T16:28:28;18.80;99.90
57058;DHT22;55017;52.848;6.748;2022-09-09T16:30:54;18.90;99.90
57058;DHT22;55017;52.848;6.748;2022-09-09T16:33:20;18.80;99.90
57058;DHT22;55017;52.848;6.748;2022-09-09T16:35:46;18.90;99.90
57058;DHT22;55017;52.848;6.748;2022-09-09T16:38:12;18.90;99.90
57058;DHT22;55017;52.848;6.748;2022-09-09T16:40:38;18.90;99.90
57058;DHT22;55017;52.848;6.748;2022-09-09T16:43:04;18.80;99.90
57058;DHT22;55017;52.848;6.748;2022-09-09T16:45:31;18.80;99.90
57058;DHT22;55017;52.848;6.748;2022-09-09T16:47:58;18.70;99.90
57058;DHT22;55017;52.848;6.748;2022-09-09T16:50:24;18.70;99.90
57058;DHT22;55017;52.848;6.748;2022-09-09T16:52:51;18.70;99.90
57058;DHT22;55017;52.848;6.748;2022-09-09T16:55:17;18.70;99.90
57058;DHT22;55017;52.848;6.748;2022-09-09T16:57:43;18.60;99.90
57058;DHT22;55017;52.848;6.748;2022-09-09T17:00:09;18.60;99.90
57058;DHT22;55017;52.848;6.748;2022-09-09T17:02:34;18.60;99.90
57058;DHT22;55017;52.848;6.748;2022-09-09T17:05:00;18.60;99.90
57058;DHT22;55017;52.848;6.748;2022-09-09T17:07:26;18.50;99.90
57058;DHT22;55017;52.848;6.748;2022-09-09T17:09:52;18.50;99.90
57058;DHT22;55017;52.848;6.748;2022-09-09T17:12:19;18.50;99.90
57058;DHT22;55017;52.848;6.748;2022-09-09T17:14:45;18.50;99.90
57058;DHT22;55017;52.848;6.748;2022-09-09T17:17:11;18.60;99.90
57058;DHT22;55017;52.848;6.748;2022-09-09T17:19:36;18.50;99.90
57058;DHT22;55017;52.848;6.748;2022-09-09T17:22:02;18.40;99.90
57058;DHT22;55017;52.848;6.748;2022-09-09T17:24:28;18.40;99.90
57058;DHT22;55017;52.848;6.748;2022-09-09T17:26:54;18.40;99.90
57058;DHT22;55017;52.848;6.748;2022-09-09T17:29:21;18.40;99.90
57058;DHT22;55017;52.848;6.748;2022-09-09T17:31:46;18.30;99.90
57058;DHT22;55017;52.848;6.748;2022-09-09T17:34:12;18.30;99.90
57058;DHT22;55017;52.848;6.748;2022-09-09T17:36:38;18.30;99.90
57058;DHT22;55017;52.848;6.748;2022-09-09T17:39:05;18.20;99.90
57058;DHT22;55017;52.848;6.748;2022-09-09T17:41:33;18.20;99.90
57058;DHT22;55017;52.848;6.748;2022-09-09T17:43:59;18.20;99.90
57058;DHT22;55017;52.848;6.748;2022-09-09T17:48:57;18.20;99.90
57058;DHT22;55017;52.848;6.748;2022-09-09T17:51:23;18.20;99.90
57058;DHT22;55017;52.848;6.748;2022-09-09T17:53:51;18.10;99.90